Flight Track Log - Related Links

Times and Time Zones

All times are in EDT time to prevent confusion due to time zone crossing. See the DAL8943 flight status page for this flight to view local times or setup timezone preferences in your user account.

Time Position Orientation Groundspeed Altitude Reporting Facility
EDT Latitude Longitude Course Direction KTS km/h meters Rate Location/Type
Fri 16:25:48 35.3789 -97.6097 177° South 157 291 549  Level Fort Worth Center
Fri 16:26:43 35.3331 -97.6069 177° South 176 327 1,280 851 Climbing Fort Worth Center
Fri 16:27:44 35.2747 -97.6372 203° Southwest 260 481 2,195 885 Climbing Fort Worth Center
Fri 16:28:18 35.2369 -97.6550 201° Southwest 267 494 2,682 1,158 Climbing Fort Worth Center
Fri 16:28:44 35.2036 -97.6703 201° Southwest 278 515 3,353 884 Climbing Fort Worth Center
Fri 16:29:18 35.1683 -97.6600 167° South 300 555 3,566 661 Climbing Fort Worth Center
Fri 16:30:18 35.0764 -97.6192 160° South 327 605 4,389 899 Climbing Fort Worth Center
Fri 16:31:18 34.9828 -97.5731 158° South 348 644 5,364 884 Climbing Fort Worth Center
Fri 16:32:18 34.8828 -97.5250 158° South 373 690 6,157 716 Climbing Fort Worth Center
Fri 16:33:18 34.7806 -97.4717 157° South 391 724 6,797 640 Climbing Fort Worth Center
Fri 16:34:18 34.6719 -97.4211 159° South 404 748 7,437 594 Climbing Fort Worth Center
Fri 16:35:18 34.5572 -97.3883 167° South 417 772 7,986 549 Climbing Fort Worth Center
Fri 16:36:18 34.4403 -97.3556 167° South 427 790 8,534 488 Climbing Fort Worth Center
Fri 16:37:18 34.3214 -97.3181 165° South 438 811 8,961 411 Climbing Fort Worth Center
Fri 16:38:18 34.1983 -97.2831 167° South 449 832 9,357 488 Climbing Fort Worth Center
Fri 16:39:18 34.0667 -97.2431 166° South 445 824 9,936 579 Climbing Fort Worth Center
Fri 16:40:18 33.9458 -97.2056 166° South 445 824 10,516 472 Climbing Fort Worth Center
Fri 16:41:18 33.8247 -97.1711 167° South 450 834 10,881 335 Climbing Fort Worth Center
Fri 16:42:18 33.7036 -97.1389 168° South 450 834 11,186 396 Climbing Fort Worth Center
Fri 16:43:18 33.5844 -97.1017 165° South 450 834 11,674 351 Climbing Fort Worth Center
Fri 16:44:18 33.4694 -97.0672 166° South 437 810 11,887 106 Climbing Fort Worth Center
Fri 16:45:19 33.3483 -97.0331 167° South 437 810 11,887  Level Fort Worth Center
Fri 16:46:18 33.2272 -96.9986 167° South 443 821 11,887  Level Fort Worth Center
Fri 16:47:18 33.1186 -96.9669 166° South 448 830 11,887  Level Fort Worth Center
Fri 16:48:19 32.9828 -96.9306 167° South 453 838 11,887  Level Fort Worth Center
Fri 16:49:18 32.8742 -96.9039 168° South 448 830 11,887  Level Fort Worth Center
Fri 16:50:18 32.7406 -96.8850 173° South 448 830 11,887  Level Fort Worth Center
Fri 16:51:18 32.6194 -96.8881 181° South 442 819 11,887  Level Fort Worth Center
Fri 16:52:18 32.4961 -96.8814 177° South 437 810 11,887  Level Fort Worth Center
Fri 16:53:18 32.3750 -96.8747 177° South 442 819 11,887  Level Fort Worth Center
Fri 16:54:18 32.2539 -96.8681 177° South 437 810 11,887  Level Fort Worth Center
Fri 16:55:18 32.1308 -96.8614 177° South 444 822 11,887  Level Fort Worth Center
Fri 16:56:18 32.0075 -96.8572 178° South 444 822 11,887  Level Fort Worth Center
Fri 16:57:19 31.8906 -96.8481 176° South 432 800 11,887  Level Fort Worth Center
Fri 16:58:18 31.7694 -96.8392 176° South 437 810 11,887  Level Fort Worth Center
Fri 16:59:34 31.6233 -96.8253 175° South 442 819 11,887 -13 Level Houston Center
Fri 17:00:36 31.4986 -96.8036 172° South 446 826 11,857 -162 Descending Houston Center
Fri 17:01:38 31.3742 -96.7847 173° South 445 824 11,552 -295 Descending Houston Center
Fri 17:02:40 31.2486 -96.7636 172° South 447 827 11,247 -295 Descending Houston Center
Fri 17:03:42 31.1211 -96.7428 172° South 452 837 10,942 -339 Descending Houston Center
Fri 17:04:44 30.9733 -96.7194 172° South 452 837 10,546 -664 Descending Houston Center
Fri 17:05:46 30.8436 -96.6986 172° South 460 851 9,571 -1,062 Descending Houston Center
Fri 17:06:48 30.7153 -96.6781 172° South 457 847 8,352 -1,083 Descending Houston Center
Fri 17:07:51 30.5886 -96.6497 169° South 458 848 7,315 -966 Descending Houston Center
Fri 17:08:53 30.4958 -96.5519 138° Southeast 454 840 6,340 -826 Descending Houston Center
Fri 17:09:55 30.4114 -96.4508 134° Southeast 434 803 5,608 -758 Descending Houston Center
Fri 17:10:15 30.3831 -96.4206 137° Southeast 395 732 5,304 -826 Descending Houston Center
Fri 17:10:57 30.3386 -96.3644 133° Southeast 372 689 4,755 -899 Descending Houston Center
Fri 17:11:16 30.3106 -96.3294 133° Southeast 351 650 4,389 -708 Descending Houston Center
Fri 17:11:59 30.2694 -96.2814 135° Southeast 357 661 4,023 -689 Descending Houston Center
Fri 17:12:17 30.2383 -96.2431 133° Southeast 353 653 3,688 -649 Descending Houston Center
Fri 17:13:01 30.1861 -96.1919 140° Southeast 348 644 3,353 -325 Descending Houston Center
Fri 17:13:19 30.1597 -96.1819 162° South 323 599 3,353  Level Houston Center
Fri 17:14:03 30.1053 -96.1522 155° Southeast 334 618 3,353  Level Houston Center
Fri 17:14:20 30.0739 -96.1361 156° South 334 618 3,353 -59 Level Houston Center
Fri 17:15:05 30.0222 -96.1083 155° Southeast 330 612 3,292 -236 Descending Houston Center
Fri 17:15:22 29.9881 -96.0903 155° Southeast 325 602 3,109 -187 Descending Houston Center
Fri 17:16:23 29.9047 -96.0467 156° South 322 597 3,048 -120 Descending Houston Center
Fri 17:17:09 29.8608 -96.0228 155° Southeast 316 586 2,896 -325 Descending Houston Center
Fri 17:17:25 29.8336 -96.0019 146° Southeast 281 520 2,713 -413 Descending Houston Center
Fri 17:18:11 29.8031 -95.9589 129° Southeast 290 538 2,469 -419 Descending Houston Center
Fri 17:19:14 29.7469 -95.8753 128° Southeast 277 513 1,951 -307 Descending Houston Center
Fri 17:20:16 29.7011 -95.8111 129° Southeast 265 491 1,829 -59 Descending Houston Center
Fri 17:21:18 29.6800 -95.7333 107° East 261 483 1,829  Level Houston Center
Fri 17:22:20 29.6772 -95.6592 92° East 238 441 1,829 -44 Level Houston Center
Fri 17:23:22 29.6878 -95.5828 81° East 241 446 1,737 -221 Descending Houston Center
Fri 17:24:24 29.6981 -95.5128 80° East 228 422 1,372 -516 Descending Houston Center
Fri 17:25:26 29.7081 -95.4372 81° East 207 383 671 -369 Descending Houston Center
Fri 17:26:28 29.7156 -95.3758 82° East 199 369 610 -144 Descending Houston Center
Fri 17:27:33 29.6875 -95.3308 126° Southeast 131 243 366 -206 Descending Houston Center
Fri 17:28:32 29.6678 -95.3056 132° Southeast 144 267 183 -165 Descending Houston Center
Fri 17:29:35 29.6436 -95.2772 134° Southeast 129 238 30 -145 Descending Houston Center
Fri 17:31:00 29.6454 -95.2789 115° Southeast  Level Estimated

Login

Don't have an account? Register now (free) for customized features, flight alerts, and more!